sensor_id;sensor_type;location;lat;lon;timestamp;temperature;humidity
48328;DHT22;34136;51.022;7.082;2023-04-24T00:02:47;12.90;1.00
48328;DHT22;34136;51.022;7.082;2023-04-24T00:05:42;12.90;1.00
48328;DHT22;34136;51.022;7.082;2023-04-24T00:08:33;12.90;1.00
48328;DHT22;34136;51.022;7.082;2023-04-24T00:11:28;12.80;1.00
48328;DHT22;34136;51.022;7.082;2023-04-24T00:14:16;12.80;1.00
48328;DHT22;34136;51.022;7.082;2023-04-24T00:17:05;12.80;1.00
48328;DHT22;34136;51.022;7.082;2023-04-24T00:20:03;12.80;1.00
48328;DHT22;34136;51.022;7.082;2023-04-24T00:23:15;12.80;1.00
48328;DHT22;34136;51.022;7.082;2023-04-24T00:26:07;12.80;1.00
48328;DHT22;34136;51.022;7.082;2023-04-24T00:28:56;12.80;1.00
48328;DHT22;34136;51.022;7.082;2023-04-24T00:35:35;12.60;1.00
48328;DHT22;34136;51.022;7.082;2023-04-24T00:38:22;12.50;1.00
48328;DHT22;34136;51.022;7.082;2023-04-24T00:41:10;12.50;1.00
48328;DHT22;34136;51.022;7.082;2023-04-24T00:44:14;12.40;1.00
48328;DHT22;34136;51.022;7.082;2023-04-24T00:47:05;12.40;1.00
48328;DHT22;34136;51.022;7.082;2023-04-24T00:49:58;12.50;1.00
48328;DHT22;34136;51.022;7.082;2023-04-24T00:52:46;12.40;1.00
48328;DHT22;34136;51.022;7.082;2023-04-24T00:55:33;12.40;1.00
48328;DHT22;34136;51.022;7.082;2023-04-24T00:58:21;12.40;1.00
48328;DHT22;34136;51.022;7.082;2023-04-24T01:01:21;12.30;1.00
48328;DHT22;34136;51.022;7.082;2023-04-24T01:04:11;12.30;1.00
48328;DHT22;34136;51.022;7.082;2023-04-24T01:06:59;12.30;1.00
48328;DHT22;34136;51.022;7.082;2023-04-24T01:09:48;12.20;1.00
48328;DHT22;34136;51.022;7.082;2023-04-24T01:12:38;12.10;1.00
48328;DHT22;34136;51.022;7.082;2023-04-24T01:26:57;12.10;1.00
48328;DHT22;34136;51.022;7.082;2023-04-24T01:30:32;12.00;1.00
48328;DHT22;34136;51.022;7.082;2023-04-24T01:33:39;11.90;1.00
48328;DHT22;34136;51.022;7.082;2023-04-24T01:37:01;11.90;1.00
48328;DHT22;34136;51.022;7.082;2023-04-24T01:40:21;11.80;1.00
48328;DHT22;34136;51.022;7.082;2023-04-24T01:43:20;11.70;1.00
48328;DHT22;34136;51.022;7.082;2023-04-24T01:46:22;11.70;1.00
48328;DHT22;34136;51.022;7.082;2023-04-24T01:52:24;11.60;1.00
48328;DHT22;34136;51.022;7.082;2023-04-24T01:55:21;11.50;1.00
48328;DHT22;34136;51.022;7.082;2023-04-24T01:58:26;11.40;1.00
48328;DHT22;34136;51.022;7.082;2023-04-24T02:01:26;11.50;1.00
48328;DHT22;34136;51.022;7.082;2023-04-24T02:08:21;11.50;1.00
48328;DHT22;34136;51.022;7.082;2023-04-24T02:11:33;11.40;1.00
48328;DHT22;34136;51.022;7.082;2023-04-24T02:14:32;11.30;1.00
48328;DHT22;34136;51.022;7.082;2023-04-24T02:17:29;11.20;1.00
48328;DHT22;34136;51.022;7.082;2023-04-24T02:20:26;11.10;1.00
48328;DHT22;34136;51.022;7.082;2023-04-24T02:23:39;11.00;1.00
48328;DHT22;34136;51.022;7.082;2023-04-24T02:27:00;10.70;1.00
48328;DHT22;34136;51.022;7.082;2023-04-24T02:29:52;10.60;1.00
48328;DHT22;34136;51.022;7.082;2023-04-24T02:32:38;10.60;1.00
48328;DHT22;34136;51.022;7.082;2023-04-24T02:35:32;10.50;1.00
48328;DHT22;34136;51.022;7.082;2023-04-24T02:38:33;10.50;1.00
48328;DHT22;34136;51.022;7.082;2023-04-24T02:41:32;10.50;1.00
48328;DHT22;34136;51.022;7.082;2023-04-24T02:44:18;10.50;1.00
48328;DHT22;34136;51.022;7.082;2023-04-24T02:47:05;10.50;1.00
48328;DHT22;34136;51.022;7.082;2023-04-24T02:49:51;10.40;1.00
48328;DHT22;34136;51.022;7.082;2023-04-24T02:52:37;10.40;1.00
48328;DHT22;34136;51.022;7.082;2023-04-24T02:55:24;10.40;1.00
48328;DHT22;34136;51.022;7.082;2023-04-24T02:58:13;10.40;1.00
48328;DHT22;34136;51.022;7.082;2023-04-24T03:01:07;10.40;1.00
48328;DHT22;34136;51.022;7.082;2023-04-24T03:04:04;10.40;1.00
48328;DHT22;34136;51.022;7.082;2023-04-24T03:06:57;10.50;1.00
48328;DHT22;34136;51.022;7.082;2023-04-24T03:09:44;10.40;1.00
48328;DHT22;34136;51.022;7.082;2023-04-24T03:13:03;10.40;1.00
48328;DHT22;34136;51.022;7.082;2023-04-24T03:15:55;10.40;1.00
48328;DHT22;34136;51.022;7.082;2023-04-24T03:18:55;10.30;1.00
48328;DHT22;34136;51.022;7.082;2023-04-24T03:21:51;10.40;1.00
48328;DHT22;34136;51.022;7.082;2023-04-24T03:24:53;10.40;1.00
48328;DHT22;34136;51.022;7.082;2023-04-24T03:27:40;10.40;1.00
48328;DHT22;34136;51.022;7.082;2023-04-24T03:30:35;10.40;1.00
48328;DHT22;34136;51.022;7.082;2023-04-24T03:33:27;10.30;1.00
48328;DHT22;34136;51.022;7.082;2023-04-24T03:36:22;10.30;1.00
48328;DHT22;34136;51.022;7.082;2023-04-24T03:39:33;10.30;1.00
48328;DHT22;34136;51.022;7.082;2023-04-24T03:42:28;10.20;1.00
48328;DHT22;34136;51.022;7.082;2023-04-24T03:45:30;10.20;1.00
48328;DHT22;34136;51.022;7.082;2023-04-24T03:48:19;10.20;1.00
48328;DHT22;34136;51.022;7.082;2023-04-24T03:51:15;10.30;1.00
48328;DHT22;34136;51.022;7.082;2023-04-24T03:54:05;10.30;1.00
48328;DHT22;34136;51.022;7.082;2023-04-24T03:56:54;10.30;1.00
48328;DHT22;34136;51.022;7.082;2023-04-24T03:59:42;10.30;1.00
48328;DHT22;34136;51.022;7.082;2023-04-24T04:02:39;10.30;1.00
48328;DHT22;34136;51.022;7.082;2023-04-24T04:05:57;10.40;1.00
48328;DHT22;34136;51.022;7.082;2023-04-24T04:09:06;10.40;1.00
48328;DHT22;34136;51.022;7.082;2023-04-24T04:12:00;10.40;1.00
48328;DHT22;34136;51.022;7.082;2023-04-24T04:15:03;10.40;1.00
48328;DHT22;34136;51.022;7.082;2023-04-24T04:17:57;10.40;1.00
48328;DHT22;34136;51.022;7.082;2023-04-24T04:23:35;10.30;1.00
48328;DHT22;34136;51.022;7.082;2023-04-24T04:26:32;10.30;1.00
48328;DHT22;34136;51.022;7.082;2023-04-24T04:29:28;10.30;1.00
48328;DHT22;34136;51.022;7.082;2023-04-24T04:34:58;10.30;1.00
48328;DHT22;34136;51.022;7.082;2023-04-24T04:37:53;10.30;1.00
48328;DHT22;34136;51.022;7.082;2023-04-24T04:41:09;10.40;1.00
48328;DHT22;34136;51.022;7.082;2023-04-24T04:46:43;10.30;1.00
48328;DHT22;34136;51.022;7.082;2023-04-24T04:49:50;10.30;1.00
48328;DHT22;34136;51.022;7.082;2023-04-24T04:58:12;10.30;1.00
48328;DHT22;34136;51.022;7.082;2023-04-24T05:00:59;10.20;1.00
48328;DHT22;34136;51.022;7.082;2023-04-24T05:03:50;10.20;1.00
48328;DHT22;34136;51.022;7.082;2023-04-24T05:06:37;10.30;1.00
48328;DHT22;34136;51.022;7.082;2023-04-24T05:12:06;10.30;1.00
48328;DHT22;34136;51.022;7.082;2023-04-24T05:14:58;10.40;1.00
48328;DHT22;34136;51.022;7.082;2023-04-24T05:17:55;10.40;1.00
48328;DHT22;34136;51.022;7.082;2023-04-24T05:21:21;10.30;1.00
48328;DHT22;34136;51.022;7.082;2023-04-24T05:24:14;10.30;1.00
48328;DHT22;34136;51.022;7.082;2023-04-24T05:27:12;10.30;1.00
48328;DHT22;34136;51.022;7.082;2023-04-24T05:30:01;10.30;1.00
48328;DHT22;34136;51.022;7.082;2023-04-24T05:32:48;10.30;1.00
48328;DHT22;34136;51.022;7.082;2023-04-24T05:35:37;10.20;1.00
48328;DHT22;34136;51.022;7.082;2023-04-24T05:38:25;10.30;1.00
48328;DHT22;34136;51.022;7.082;2023-04-24T05:41:12;10.30;1.00
48328;DHT22;34136;51.022;7.082;2023-04-24T05:44:00;10.40;1.00
48328;DHT22;34136;51.022;7.082;2023-04-24T05:46:49;10.40;1.00
48328;DHT22;34136;51.022;7.082;2023-04-24T05:49:39;10.40;1.00
48328;DHT22;34136;51.022;7.082;2023-04-24T05:52:27;10.30;1.00
48328;DHT22;34136;51.022;7.082;2023-04-24T05:55:21;10.30;1.00
48328;DHT22;34136;51.022;7.082;2023-04-24T05:58:17;10.30;1.00
48328;DHT22;34136;51.022;7.082;2023-04-24T06:01:18;10.20;1.00
48328;DHT22;34136;51.022;7.082;2023-04-24T06:04:30;10.20;1.00
48328;DHT22;34136;51.022;7.082;2023-04-24T06:07:25;10.20;1.00
48328;DHT22;34136;51.022;7.082;2023-04-24T06:10:16;10.20;1.00
48328;DHT22;34136;51.022;7.082;2023-04-24T06:13:05;10.00;1.00
48328;DHT22;34136;51.022;7.082;2023-04-24T06:16:15;10.00;1.00
48328;DHT22;34136;51.022;7.082;2023-04-24T06:19:15;10.10;1.00
48328;DHT22;34136;51.022;7.082;2023-04-24T06:22:11;10.00;1.00
48328;DHT22;34136;51.022;7.082;2023-04-24T06:25:13;10.10;1.00
48328;DHT22;34136;51.022;7.082;2023-04-24T06:28:33;10.00;1.00
48328;DHT22;34136;51.022;7.082;2023-04-24T06:31:34;9.90;1.00
48328;DHT22;34136;51.022;7.082;2023-04-24T06:34:21;9.90;1.00
48328;DHT22;34136;51.022;7.082;2023-04-24T06:37:09;9.80;1.00
48328;DHT22;34136;51.022;7.082;2023-04-24T06:39:56;9.80;1.00
48328;DHT22;34136;51.022;7.082;2023-04-24T06:42:43;9.80;1.00
48328;DHT22;34136;51.022;7.082;2023-04-24T06:45:30;9.70;1.00
48328;DHT22;34136;51.022;7.082;2023-04-24T06:48:16;9.70;1.00
48328;DHT22;34136;51.022;7.082;2023-04-24T06:51:07;9.60;1.00
48328;DHT22;34136;51.022;7.082;2023-04-24T06:53:59;9.70;1.00
48328;DHT22;34136;51.022;7.082;2023-04-24T06:56:51;9.50;1.00
48328;DHT22;34136;51.022;7.082;2023-04-24T06:59:38;9.50;1.00
48328;DHT22;34136;51.022;7.082;2023-04-24T07:02:28;9.40;1.00
48328;DHT22;34136;51.022;7.082;2023-04-24T07:05:15;9.20;1.00
48328;DHT22;34136;51.022;7.082;2023-04-24T07:08:03;9.10;1.00
48328;DHT22;34136;51.022;7.082;2023-04-24T07:10:50;9.10;1.00
48328;DHT22;34136;51.022;7.082;2023-04-24T07:13:36;9.20;1.00
48328;DHT22;34136;51.022;7.082;2023-04-24T07:16:22;9.20;1.00
48328;DHT22;34136;51.022;7.082;2023-04-24T07:19:13;9.20;1.00
48328;DHT22;34136;51.022;7.082;2023-04-24T07:22:00;9.30;1.00
48328;DHT22;34136;51.022;7.082;2023-04-24T07:24:46;9.30;1.00
48328;DHT22;34136;51.022;7.082;2023-04-24T07:27:33;9.20;1.00
48328;DHT22;34136;51.022;7.082;2023-04-24T07:30:21;9.20;1.00
48328;DHT22;34136;51.022;7.082;2023-04-24T07:33:08;9.20;1.00
48328;DHT22;34136;51.022;7.082;2023-04-24T07:35:54;9.30;1.00
48328;DHT22;34136;51.022;7.082;2023-04-24T07:38:42;9.20;1.00
48328;DHT22;34136;51.022;7.082;2023-04-24T07:41:28;9.00;1.00
48328;DHT22;34136;51.022;7.082;2023-04-24T07:44:15;9.00;1.00
48328;DHT22;34136;51.022;7.082;2023-04-24T07:47:02;8.90;1.00
48328;DHT22;34136;51.022;7.082;2023-04-24T07:49:49;8.80;1.00
48328;DHT22;34136;51.022;7.082;2023-04-24T07:52:36;8.70;1.00
48328;DHT22;34136;51.022;7.082;2023-04-24T07:55:23;8.80;1.00
48328;DHT22;34136;51.022;7.082;2023-04-24T07:58:10;8.80;1.00
48328;DHT22;34136;51.022;7.082;2023-04-24T08:00:56;8.70;1.00
48328;DHT22;34136;51.022;7.082;2023-04-24T08:03:42;8.70;1.00
48328;DHT22;34136;51.022;7.082;2023-04-24T08:06:29;8.60;1.00
48328;DHT22;34136;51.022;7.082;2023-04-24T08:09:15;8.70;1.00
48328;DHT22;34136;51.022;7.082;2023-04-24T08:12:03;8.60;1.00
48328;DHT22;34136;51.022;7.082;2023-04-24T08:14:49;8.50;1.00
48328;DHT22;34136;51.022;7.082;2023-04-24T08:17:36;8.40;1.00
48328;DHT22;34136;51.022;7.082;2023-04-24T08:20:23;8.30;1.00
48328;DHT22;34136;51.022;7.082;2023-04-24T08:23:09;8.10;1.00
48328;DHT22;34136;51.022;7.082;2023-04-24T08:25:57;8.20;1.00
48328;DHT22;34136;51.022;7.082;2023-04-24T08:28:43;8.20;1.00
48328;DHT22;34136;51.022;7.082;2023-04-24T08:31:31;8.20;1.00
48328;DHT22;34136;51.022;7.082;2023-04-24T08:34:17;8.10;1.00
48328;DHT22;34136;51.022;7.082;2023-04-24T08:37:04;8.10;1.00
48328;DHT22;34136;51.022;7.082;2023-04-24T08:39:51;8.10;1.00
48328;DHT22;34136;51.022;7.082;2023-04-24T08:42:38;8.10;1.00
48328;DHT22;34136;51.022;7.082;2023-04-24T08:45:26;8.20;1.00
48328;DHT22;34136;51.022;7.082;2023-04-24T08:48:13;8.20;1.00
48328;DHT22;34136;51.022;7.082;2023-04-24T08:51:00;8.20;1.00
48328;DHT22;34136;51.022;7.082;2023-04-24T08:53:47;8.10;1.00
48328;DHT22;34136;51.022;7.082;2023-04-24T08:56:43;8.00;1.00
48328;DHT22;34136;51.022;7.082;2023-04-24T08:59:37;8.00;1.00
48328;DHT22;34136;51.022;7.082;2023-04-24T09:02:25;8.00;1.00
48328;DHT22;34136;51.022;7.082;2023-04-24T09:05:13;8.00;1.00
48328;DHT22;34136;51.022;7.082;2023-04-24T09:08:02;8.00;1.00
48328;DHT22;34136;51.022;7.082;2023-04-24T09:10:49;7.90;1.00
48328;DHT22;34136;51.022;7.082;2023-04-24T09:13:35;8.00;1.00
48328;DHT22;34136;51.022;7.082;2023-04-24T09:16:23;7.90;1.00
48328;DHT22;34136;51.022;7.082;2023-04-24T09:19:10;8.00;1.00
48328;DHT22;34136;51.022;7.082;2023-04-24T09:21:56;8.00;1.00
48328;DHT22;34136;51.022;7.082;2023-04-24T09:24:45;8.00;1.00
48328;DHT22;34136;51.022;7.082;2023-04-24T09:27:32;8.10;1.00
48328;DHT22;34136;51.022;7.082;2023-04-24T09:30:21;8.20;1.00
48328;DHT22;34136;51.022;7.082;2023-04-24T09:33:14;8.20;1.00
48328;DHT22;34136;51.022;7.082;2023-04-24T09:36:02;8.20;1.00
48328;DHT22;34136;51.022;7.082;2023-04-24T09:38:48;8.20;1.00
48328;DHT22;34136;51.022;7.082;2023-04-24T09:41:35;8.20;1.00
48328;DHT22;34136;51.022;7.082;2023-04-24T09:44:22;8.20;1.00
48328;DHT22;34136;51.022;7.082;2023-04-24T09:47:09;8.10;1.00
48328;DHT22;34136;51.022;7.082;2023-04-24T09:49:58;8.10;1.00
48328;DHT22;34136;51.022;7.082;2023-04-24T09:52:56;8.10;1.00
48328;DHT22;34136;51.022;7.082;2023-04-24T09:55:45;8.10;1.00
48328;DHT22;34136;51.022;7.082;2023-04-24T09:58:31;8.20;1.00
48328;DHT22;34136;51.022;7.082;2023-04-24T10:01:30;8.30;1.00
48328;DHT22;34136;51.022;7.082;2023-04-24T10:04:18;8.20;1.00
48328;DHT22;34136;51.022;7.082;2023-04-24T10:07:05;8.30;1.00
48328;DHT22;34136;51.022;7.082;2023-04-24T10:09:51;8.40;1.00
48328;DHT22;34136;51.022;7.082;2023-04-24T10:12:38;8.50;1.00
48328;DHT22;34136;51.022;7.082;2023-04-24T10:15:26;8.60;1.00
48328;DHT22;34136;51.022;7.082;2023-04-24T10:18:12;8.60;1.00
48328;DHT22;34136;51.022;7.082;2023-04-24T10:20:59;8.70;1.00
48328;DHT22;34136;51.022;7.082;2023-04-24T10:23:46;8.90;1.00
48328;DHT22;34136;51.022;7.082;2023-04-24T10:26:34;9.00;1.00
48328;DHT22;34136;51.022;7.082;2023-04-24T10:29:21;9.00;1.00
48328;DHT22;34136;51.022;7.082;2023-04-24T10:32:07;9.10;1.00
48328;DHT22;34136;51.022;7.082;2023-04-24T10:34:54;9.20;1.00
48328;DHT22;34136;51.022;7.082;2023-04-24T10:37:46;9.30;1.00
48328;DHT22;34136;51.022;7.082;2023-04-24T10:40:36;9.30;1.00
48328;DHT22;34136;51.022;7.082;2023-04-24T10:43:22;9.40;1.00
48328;DHT22;34136;51.022;7.082;2023-04-24T10:46:08;9.50;1.00
48328;DHT22;34136;51.022;7.082;2023-04-24T10:48:55;9.60;1.00
48328;DHT22;34136;51.022;7.082;2023-04-24T10:51:50;9.60;1.00
48328;DHT22;34136;51.022;7.082;2023-04-24T10:57:27;9.60;1.00
48328;DHT22;34136;51.022;7.082;2023-04-24T11:00:21;9.60;1.00
48328;DHT22;34136;51.022;7.082;2023-04-24T11:03:22;9.50;1.00
48328;DHT22;34136;51.022;7.082;2023-04-24T11:06:09;9.60;1.00
48328;DHT22;34136;51.022;7.082;2023-04-24T11:09:05;9.50;1.00
48328;DHT22;34136;51.022;7.082;2023-04-24T11:12:08;9.50;1.00
48328;DHT22;34136;51.022;7.082;2023-04-24T11:17:42;9.50;1.00
48328;DHT22;34136;51.022;7.082;2023-04-24T11:20:29;9.50;1.00
48328;DHT22;34136;51.022;7.082;2023-04-24T11:23:15;9.60;1.00
48328;DHT22;34136;51.022;7.082;2023-04-24T11:26:13;9.50;1.00
48328;DHT22;34136;51.022;7.082;2023-04-24T11:29:07;9.30;1.00
48328;DHT22;34136;51.022;7.082;2023-04-24T11:31:53;9.30;1.00
48328;DHT22;34136;51.022;7.082;2023-04-24T11:34:40;9.40;1.00
48328;DHT22;34136;51.022;7.082;2023-04-24T11:37:38;9.60;1.00
48328;DHT22;34136;51.022;7.082;2023-04-24T11:40:25;9.80;1.00
48328;DHT22;34136;51.022;7.082;2023-04-24T11:43:12;9.90;1.00
48328;DHT22;34136;51.022;7.082;2023-04-24T11:45:59;10.20;1.00
48328;DHT22;34136;51.022;7.082;2023-04-24T11:48:46;10.30;1.00
48328;DHT22;34136;51.022;7.082;2023-04-24T11:51:32;10.50;1.00
48328;DHT22;34136;51.022;7.082;2023-04-24T11:54:18;10.50;1.00
48328;DHT22;34136;51.022;7.082;2023-04-24T11:57:05;10.60;1.00
48328;DHT22;34136;51.022;7.082;2023-04-24T11:59:52;10.60;1.00
48328;DHT22;34136;51.022;7.082;2023-04-24T12:02:38;10.60;1.00
48328;DHT22;34136;51.022;7.082;2023-04-24T12:05:26;10.70;1.00
48328;DHT22;34136;51.022;7.082;2023-04-24T12:08:27;10.80;1.00
48328;DHT22;34136;51.022;7.082;2023-04-24T12:11:16;11.00;1.00
48328;DHT22;34136;51.022;7.082;2023-04-24T12:14:12;11.00;1.00
48328;DHT22;34136;51.022;7.082;2023-04-24T12:16:58;11.00;1.00
48328;DHT22;34136;51.022;7.082;2023-04-24T12:19:47;10.90;1.00
48328;DHT22;34136;51.022;7.082;2023-04-24T12:25:34;10.90;1.00
48328;DHT22;34136;51.022;7.082;2023-04-24T12:28:20;10.80;1.00
48328;DHT22;34136;51.022;7.082;2023-04-24T12:31:07;10.70;1.00
48328;DHT22;34136;51.022;7.082;2023-04-24T12:33:55;10.60;1.00
48328;DHT22;34136;51.022;7.082;2023-04-24T12:36:41;10.60;1.00
48328;DHT22;34136;51.022;7.082;2023-04-24T12:39:27;10.50;1.00
48328;DHT22;34136;51.022;7.082;2023-04-24T12:42:13;10.50;1.00
48328;DHT22;34136;51.022;7.082;2023-04-24T12:45:05;10.50;1.00
48328;DHT22;34136;51.022;7.082;2023-04-24T12:47:51;10.50;1.00
48328;DHT22;34136;51.022;7.082;2023-04-24T12:50:38;10.70;1.00
48328;DHT22;34136;51.022;7.082;2023-04-24T12:53:25;10.80;1.00
48328;DHT22;34136;51.022;7.082;2023-04-24T12:56:12;11.00;1.00
48328;DHT22;34136;51.022;7.082;2023-04-24T12:58:59;11.10;1.00
48328;DHT22;34136;51.022;7.082;2023-04-24T13:01:45;11.30;1.00
48328;DHT22;34136;51.022;7.082;2023-04-24T13:04:31;11.50;1.00
48328;DHT22;34136;51.022;7.082;2023-04-24T13:07:17;11.70;1.00
48328;DHT22;34136;51.022;7.082;2023-04-24T13:10:03;11.80;1.00
48328;DHT22;34136;51.022;7.082;2023-04-24T13:12:50;11.70;1.00
48328;DHT22;34136;51.022;7.082;2023-04-24T13:15:37;11.80;1.00
48328;DHT22;34136;51.022;7.082;2023-04-24T13:18:23;11.80;1.00
48328;DHT22;34136;51.022;7.082;2023-04-24T13:21:09;11.90;1.00
48328;DHT22;34136;51.022;7.082;2023-04-24T13:23:55;11.90;1.00
48328;DHT22;34136;51.022;7.082;2023-04-24T13:26:41;12.10;1.00
48328;DHT22;34136;51.022;7.082;2023-04-24T13:29:28;12.30;1.00
48328;DHT22;34136;51.022;7.082;2023-04-24T13:32:14;12.20;1.00
48328;DHT22;34136;51.022;7.082;2023-04-24T13:35:00;12.30;1.00
48328;DHT22;34136;51.022;7.082;2023-04-24T13:37:46;12.20;1.00
48328;DHT22;34136;51.022;7.082;2023-04-24T13:40:33;12.10;1.00
48328;DHT22;34136;51.022;7.082;2023-04-24T13:43:19;12.10;1.00
48328;DHT22;34136;51.022;7.082;2023-04-24T13:46:07;12.20;1.00
48328;DHT22;34136;51.022;7.082;2023-04-24T13:48:53;12.30;1.00
48328;DHT22;34136;51.022;7.082;2023-04-24T13:51:40;12.40;1.00
48328;DHT22;34136;51.022;7.082;2023-04-24T13:54:27;12.50;1.00
48328;DHT22;34136;51.022;7.082;2023-04-24T13:57:14;12.40;1.00
48328;DHT22;34136;51.022;7.082;2023-04-24T14:00:00;12.30;1.00
48328;DHT22;34136;51.022;7.082;2023-04-24T14:02:46;12.30;1.00
48328;DHT22;34136;51.022;7.082;2023-04-24T14:05:33;12.20;1.00
48328;DHT22;34136;51.022;7.082;2023-04-24T14:08:19;12.10;1.00
48328;DHT22;34136;51.022;7.082;2023-04-24T14:11:05;12.10;1.00
48328;DHT22;34136;51.022;7.082;2023-04-24T14:13:51;12.00;1.00
48328;DHT22;34136;51.022;7.082;2023-04-24T14:16:37;12.00;1.00
48328;DHT22;34136;51.022;7.082;2023-04-24T14:19:24;12.10;1.00
48328;DHT22;34136;51.022;7.082;2023-04-24T14:22:10;12.30;1.00
48328;DHT22;34136;51.022;7.082;2023-04-24T14:24:56;12.50;1.00
48328;DHT22;34136;51.022;7.082;2023-04-24T14:27:42;12.70;1.00
48328;DHT22;34136;51.022;7.082;2023-04-24T14:30:28;12.70;1.00
48328;DHT22;34136;51.022;7.082;2023-04-24T14:33:14;12.80;1.00
48328;DHT22;34136;51.022;7.082;2023-04-24T14:36:01;12.70;1.00
48328;DHT22;34136;51.022;7.082;2023-04-24T14:38:47;12.60;1.00
48328;DHT22;34136;51.022;7.082;2023-04-24T14:41:33;12.60;1.00
48328;DHT22;34136;51.022;7.082;2023-04-24T14:44:20;12.70;1.00
48328;DHT22;34136;51.022;7.082;2023-04-24T14:47:06;12.70;1.00
48328;DHT22;34136;51.022;7.082;2023-04-24T14:49:53;12.70;1.00
48328;DHT22;34136;51.022;7.082;2023-04-24T14:52:39;12.80;1.00
48328;DHT22;34136;51.022;7.082;2023-04-24T14:55:25;12.70;1.00
48328;DHT22;34136;51.022;7.082;2023-04-24T14:58:11;12.70;1.00
48328;DHT22;34136;51.022;7.082;2023-04-24T15:00:57;12.80;1.00
48328;DHT22;34136;51.022;7.082;2023-04-24T15:03:44;12.90;1.00
48328;DHT22;34136;51.022;7.082;2023-04-24T15:06:34;12.60;1.00
48328;DHT22;34136;51.022;7.082;2023-04-24T15:09:22;12.40;1.00
48328;DHT22;34136;51.022;7.082;2023-04-24T15:12:29;12.40;1.00
48328;DHT22;34136;51.022;7.082;2023-04-24T15:19:56;12.40;1.00
48328;DHT22;34136;51.022;7.082;2023-04-24T15:22:48;12.50;1.00
48328;DHT22;34136;51.022;7.082;2023-04-24T15:25:35;12.70;1.00
48328;DHT22;34136;51.022;7.082;2023-04-24T15:28:22;12.70;1.00
48328;DHT22;34136;51.022;7.082;2023-04-24T15:31:08;12.60;1.00
48328;DHT22;34136;51.022;7.082;2023-04-24T15:33:55;12.60;1.00
48328;DHT22;34136;51.022;7.082;2023-04-24T15:36:41;12.70;1.00
48328;DHT22;34136;51.022;7.082;2023-04-24T15:39:27;12.80;1.00
48328;DHT22;34136;51.022;7.082;2023-04-24T15:42:39;12.80;1.00
48328;DHT22;34136;51.022;7.082;2023-04-24T15:46:03;12.90;1.00
48328;DHT22;34136;51.022;7.082;2023-04-24T15:48:55;12.90;1.00
48328;DHT22;34136;51.022;7.082;2023-04-24T15:51:45;12.90;1.00
48328;DHT22;34136;51.022;7.082;2023-04-24T15:54:41;12.90;1.00
48328;DHT22;34136;51.022;7.082;2023-04-24T15:57:38;12.90;1.00
48328;DHT22;34136;51.022;7.082;2023-04-24T16:00:33;12.70;1.00
48328;DHT22;34136;51.022;7.082;2023-04-24T16:03:34;12.60;1.00
48328;DHT22;34136;51.022;7.082;2023-04-24T16:06:52;12.50;1.00
48328;DHT22;34136;51.022;7.082;2023-04-24T16:09:46;12.60;1.00
48328;DHT22;34136;51.022;7.082;2023-04-24T16:12:51;12.50;1.00
48328;DHT22;34136;51.022;7.082;2023-04-24T16:15:43;12.50;1.00
48328;DHT22;34136;51.022;7.082;2023-04-24T16:18:41;12.40;1.00
48328;DHT22;34136;51.022;7.082;2023-04-24T16:22:13;12.50;1.00
48328;DHT22;34136;51.022;7.082;2023-04-24T16:29:44;12.70;1.00
48328;DHT22;34136;51.022;7.082;2023-04-24T16:36:48;12.80;1.00
48328;DHT22;34136;51.022;7.082;2023-04-24T16:40:30;12.60;1.00
48328;DHT22;34136;51.022;7.082;2023-04-24T16:44:23;12.60;1.00
48328;DHT22;34136;51.022;7.082;2023-04-24T17:22:28;12.70;1.00
48328;DHT22;34136;51.022;7.082;2023-04-24T17:29:39;12.30;1.00
48328;DHT22;34136;51.022;7.082;2023-04-24T17:32:55;12.10;1.00
48328;DHT22;34136;51.022;7.082;2023-04-24T17:37:26;12.10;1.00
48328;DHT22;34136;51.022;7.082;2023-04-24T17:40:19;12.20;1.00
48328;DHT22;34136;51.022;7.082;2023-04-24T17:44:04;12.10;1.00
48328;DHT22;34136;51.022;7.082;2023-04-24T17:51:35;12.10;1.00
48328;DHT22;34136;51.022;7.082;2023-04-24T17:54:35;12.00;1.00
48328;DHT22;34136;51.022;7.082;2023-04-24T17:57:29;12.00;1.00
48328;DHT22;34136;51.022;7.082;2023-04-24T18:04:10;11.90;1.00
48328;DHT22;34136;51.022;7.082;2023-04-24T18:27:08;11.70;1.00
48328;DHT22;34136;51.022;7.082;2023-04-24T18:35:32;11.50;1.00
48328;DHT22;34136;51.022;7.082;2023-04-24T18:39:07;11.50;1.00
48328;DHT22;34136;51.022;7.082;2023-04-24T18:42:48;11.40;1.00
48328;DHT22;34136;51.022;7.082;2023-04-24T18:46:15;11.30;1.00
48328;DHT22;34136;51.022;7.082;2023-04-24T18:49:34;11.20;1.00
48328;DHT22;34136;51.022;7.082;2023-04-24T18:52:46;11.30;1.00
48328;DHT22;34136;51.022;7.082;2023-04-24T18:55:56;11.20;1.00
48328;DHT22;34136;51.022;7.082;2023-04-24T18:58:47;11.10;1.00
48328;DHT22;34136;51.022;7.082;2023-04-24T19:01:42;11.00;1.00
48328;DHT22;34136;51.022;7.082;2023-04-24T19:04:42;11.00;1.00
48328;DHT22;34136;51.022;7.082;2023-04-24T19:07:43;11.10;1.00
48328;DHT22;34136;51.022;7.082;2023-04-24T19:10:45;11.10;1.00
48328;DHT22;34136;51.022;7.082;2023-04-24T19:13:48;11.10;1.00
48328;DHT22;34136;51.022;7.082;2023-04-24T19:16:52;11.00;1.00
48328;DHT22;34136;51.022;7.082;2023-04-24T19:19:46;11.10;1.00
48328;DHT22;34136;51.022;7.082;2023-04-24T19:22:39;11.10;1.00
48328;DHT22;34136;51.022;7.082;2023-04-24T19:25:36;11.00;1.00
48328;DHT22;34136;51.022;7.082;2023-04-24T19:28:28;10.90;1.00
48328;DHT22;34136;51.022;7.082;2023-04-24T19:31:25;10.80;1.00
48328;DHT22;34136;51.022;7.082;2023-04-24T19:34:21;10.90;1.00
48328;DHT22;34136;51.022;7.082;2023-04-24T19:37:09;10.90;1.00
48328;DHT22;34136;51.022;7.082;2023-04-24T19:40:09;10.80;1.00
48328;DHT22;34136;51.022;7.082;2023-04-24T19:43:02;10.70;1.00
48328;DHT22;34136;51.022;7.082;2023-04-24T19:46:00;10.70;1.00
48328;DHT22;34136;51.022;7.082;2023-04-24T19:48:55;10.60;1.00
48328;DHT22;34136;51.022;7.082;2023-04-24T19:51:51;10.50;1.00
48328;DHT22;34136;51.022;7.082;2023-04-24T19:54:37;10.40;1.00
48328;DHT22;34136;51.022;7.082;2023-04-24T19:57:29;10.40;1.00
48328;DHT22;34136;51.022;7.082;2023-04-24T20:00:24;10.40;1.00
48328;DHT22;34136;51.022;7.082;2023-04-24T20:03:18;10.40;1.00
48328;DHT22;34136;51.022;7.082;2023-04-24T20:06:16;10.30;1.00
48328;DHT22;34136;51.022;7.082;2023-04-24T20:09:13;10.20;1.00
48328;DHT22;34136;51.022;7.082;2023-04-24T20:12:06;10.10;1.00
48328;DHT22;34136;51.022;7.082;2023-04-24T20:14:55;10.10;1.00
48328;DHT22;34136;51.022;7.082;2023-04-24T20:17:45;9.90;1.00
48328;DHT22;34136;51.022;7.082;2023-04-24T20:20:34;9.90;1.00
48328;DHT22;34136;51.022;7.082;2023-04-24T20:23:27;9.90;1.00
48328;DHT22;34136;51.022;7.082;2023-04-24T20:26:14;9.90;1.00
48328;DHT22;34136;51.022;7.082;2023-04-24T20:29:06;9.80;1.00
48328;DHT22;34136;51.022;7.082;2023-04-24T20:32:04;9.80;1.00
48328;DHT22;34136;51.022;7.082;2023-04-24T20:34:58;9.80;1.00
48328;DHT22;34136;51.022;7.082;2023-04-24T20:37:49;9.70;1.00
48328;DHT22;34136;51.022;7.082;2023-04-24T20:40:44;9.70;1.00
48328;DHT22;34136;51.022;7.082;2023-04-24T20:43:37;9.60;1.00
48328;DHT22;34136;51.022;7.082;2023-04-24T20:46:26;9.70;1.00
48328;DHT22;34136;51.022;7.082;2023-04-24T20:49:17;9.70;1.00
48328;DHT22;34136;51.022;7.082;2023-04-24T20:52:05;9.70;1.00